Albright, West Virginia
Current Conditions -  °F | °C
As of 5:25 PM on Wednesday 28 Jan 2015 (Local Time) from K2G4 Reporting Station
Clear Clear  
Wind Chill: 16°   Ceiling: Unl
Heat Index: 16°   Visibility: 10mi
Dew Point: 14°   Wind: 0mph
Humidity: 93%   Direction: NA
Pressure: 30.18"   Gusts: NA
Location:  39.49°N, 79.64°W
Report Text: K2G4 282225Z AUTO 00000KT 10SM CLR M09/M10 A3018 RMK AO1
Loading
Personal Weather Stations






























Interactive Weather Map New forecast layout! Learn more

10-Day Weather Forecast

Advertisements
Track Severe Weather on mobile